Felipe Simoes

Scout - Alverca
23 Apr 2028
Sonntag
Verarbeitung

Persönlichkeit

Anpassungsfähigkeit (17) Ehrgeiz (19) Kontroverse (19) Loyalität (4) Druck (2) Professionalität (1) Fairness (10) Temperament (13)

Profil

Trainerstil Demokratisch
Lizenz Kontinentale C
Entschlossenheit 10
Menschenführung 10
Motivation 11
Disziplin 5
Arbeitszufriedenheit
100%
Ermüdung
0%
Rolle Scout
Gehalt 37.4K p/W
Vertrag 14.03.2029

Leistung

Verhalten Gut
Trainingseffektivität
44%
Spielerentwicklung
45%
Verletzungsprävention
55%
Taktische Umsetzung
55%

Letzte Ereignisse

Nahm an einer Scouting-Besprechung teil jetzt
Nahm an einer Scouting-Besprechung teil jetzt
Nahm an einer Scouting-Besprechung teil jetzt
Empfahl ein Transferziel jetzt
Nahm an einer Scouting-Besprechung teil 7T her
Empfahl ein Transferziel 7T her
Empfahl ein Transferziel 7T her
Empfahl ein Transferziel 7T her

Aktuell beobachtet

111
Spieler Verein Status Fähigkeit Vertrauen Beobachtet Zuletzt beobachtet Letzte Stimme
André Miranda Porto Verloren 110 / 130 76% 1 24.01.2028 Befürworten
Juanda Fuentes Penafiel Aktiv 116 / 112 76% 1 06.01.2028 Befürworten
Mao Hosoya Santos Verhandlung 134 / 135 67% 1 01.01.2028 -
Reko Leiria Aktiv 114 / 108 72% 1 14.06.2027 Befürworten
Sampson Dweh Mallorca Verhandlung 133 / 134 66% 1 01.06.2027 Befürworten
Johannes Eggestein Orlando City Verhandlung 125 / 125 68% 1 01.06.2027 -
John Mercado Sparta Prague Verloren 122 / 123 67% 1 01.06.2027 -
Santi García Gil Vicente Aktiv 140 / 145 40% 4 30.05.2027 -
Derensili Sanches Fernandes Huddersfield Town Aktiv 127 / 128 40% 2 30.05.2027 -
Tyrese Campbell Sheffield United Aktiv 133 / 127 40% 2 27.05.2027 -
Isaiah Jones Luton Town Aktiv 127 / 114 40% 7 27.05.2027 -
Tomáš Rigo Stoke City Aktiv 126 / 128 40% 2 25.05.2027 -
Bobby Clark Derby County Aktiv 122 / 135 40% 1 25.05.2027 -
Scott Twine Bristol City Aktiv 122 / 125 40% 3 24.05.2027 -
Kwadwo Baah Watford Aktiv 124 / 127 40% 3 22.05.2027 -
Max Johnston Derby County Aktiv 135 / 125 40% 1 22.05.2027 -
Mohamed Belloumi Hull City Aktiv 138 / 125 40% 1 22.05.2027 -
Ole Pohlmann Rio Ave Aktiv 129 / 136 40% 3 20.05.2027 -
Ilyas Ansah Hull City Aktiv 136 / 124 40% 2 20.05.2027 -
Louie Barry Sheffield Wednesday Aktiv 116 / 121 40% 2 18.05.2027 -
Ethan Galbraith Swansea City Aktiv 137 / 129 40% 1 18.05.2027 -
Juan Bezerra Zamalek Aktiv 119 / 99 40% 2 16.05.2027 -
Alex Robertson Cardiff City Aktiv 122 / 129 40% 3 16.05.2027 -
Othmane Maamma Watford Aktiv 125 / 132 40% 1 16.05.2027 -
Jackson Muleka Konyaspor Aktiv 133 / 133 40% 1 15.05.2027 -
Tyler Goodrham Oxford United Aktiv 122 / 112 40% 1 15.05.2027 -
Harry Clarke Preston Aktiv 126 / 134 40% 2 14.05.2027 -
Daniel Kyerewaa Reading Aktiv 120 / 107 40% 2 13.05.2027 -
Sam Greenwood Bristol City Aktiv 117 / 114 40% 1 13.05.2027 -
Chemsdine Talbi Sunderland Aktiv 143 / 156 40% 1 13.05.2027 -
Giacomo Raspadori Atalanta Aktiv 142 / 145 40% 2 12.05.2027 -
Finn Azaz Southampton Aktiv 131 / 124 40% 4 12.05.2027 -
Mohamed-Ali Cho Hull City Aktiv 129 / 137 40% 5 11.05.2027 -
Samuel Edozie Southampton Aktiv 133 / 130 40% 2 10.05.2027 -
Tahith Chong Sheffield United Aktiv 119 / 129 40% 2 10.05.2027 -
Joe Gelhardt Hull City Aktiv 135 / 131 40% 1 09.05.2027 -
Toby Collyer West Bromwich Albion Aktiv 131 / 145 40% 1 09.05.2027 -
Bosun Lawal Stoke City Aktiv 135 / 119 40% 1 08.05.2027 -
Lee Hyun-Ju Arouca Aktiv 127 / 128 40% 1 08.05.2027 -
Martín Tejón Maritimo Aktiv 111 / 113 40% 1 06.05.2027 -
Savinho Tottenham Aktiv 161 / 147 40% 1 04.05.2027 -
Welington Southampton Aktiv 131 / 117 40% 1 03.05.2027 -
Malick Fofana Sunderland Aktiv 137 / 147 40% 2 01.05.2027 -
Rafik Guitane Estoril Praia Aktiv 141 / 134 40% 2 29.04.2027 -
Adam Randell Bristol City Aktiv 125 / 137 40% 1 26.04.2027 -
Sorriso Famalicao Aktiv 138 / 126 40% 5 24.04.2027 -
Oswin Appollis Orlando Pirates Aktiv 134 / 124 40% 2 24.04.2027 -
Brooke Norton-Cuffy Hull City Aktiv 130 / 137 40% 2 22.04.2027 -
Gianluca Prestianni Benfica Aktiv 134 / 148 40% 1 22.04.2027 -
Juanlu Bournemouth Aktiv 150 / 140 40% 2 19.04.2027 -
Tyreece Campbell Charlton Athletic Aktiv 121 / 124 40% 1 19.04.2027 -
Manu Pozo Torreense Aktiv 127 / 108 40% 2 15.04.2027 -
Luciano Juba Bahia Aktiv 134 / 118 40% 2 13.04.2027 -
Florentino Luís Ipswich Town Aktiv 149 / 145 40% 2 12.04.2027 -
Ali Ahmed Norwich City Aktiv 127 / 123 40% 1 12.04.2027 -
Edoardo Bove Watford Aktiv 125 / 140 40% 1 09.04.2027 -
Jordan Holsgrove Estoril Praia Aktiv 125 / 132 40% 1 07.04.2027 -
Yanis Begraoui Estoril Praia Aktiv 138 / 122 40% 2 06.04.2027 -
Luis Quintero Torreense Aktiv 135 / 130 40% 1 05.04.2027 -
Gustavo Silva Vitoria Guimaraes Aktiv 124 / 116 40% 1 03.04.2027 -
Alex Scott Bournemouth Aktiv 146 / 162 40% 1 02.04.2027 -
Erick Pulga Bahia Aktiv 145 / 133 40% 1 01.04.2027 -
Mikey Johnston West Bromwich Albion Aktiv 122 / 127 40% 1 31.03.2027 -
Simo Maritimo Aktiv 111 / 110 40% 1 30.03.2027 -
Bongani Zungu Ajax Cape Town Aktiv 130 / 138 40% 1 28.03.2027 -
Gonzalo Fulham Aktiv 149 / 141 40% 2 21.03.2027 -
Enzo Le Fée Sunderland Aktiv 133 / 143 40% 1 19.03.2027 -
Andre Brooks Sheffield United Aktiv 133 / 139 40% 1 17.03.2027 -
Valery Académico de Viseu Aktiv 116 / 113 40% 1 17.03.2027 -
Lazar Carević Famalicao Aktiv 134 / 143 40% 5 31.12.2026 -
Andreas Jungdal Westerlo Aktiv 127 / 123 40% 1 31.12.2026 -
Manuel Roffo Hajduk Split Aktiv 122 / 115 40% 3 30.12.2026 -
João Gonçalves Oliveirense Aktiv 118 / 128 40% 2 30.12.2026 -
Lucas Cañizares Tondela Aktiv 102 / 96 40% 2 30.12.2026 -
Gonçalo Tabuaço Maritimo Aktiv 112 / 108 40% 2 29.12.2026 -
Michael Cooper Sheffield United Aktiv 122 / 139 40% 2 27.12.2026 -
Patrick Sequeira Casa Pia Aktiv 129 / 130 40% 1 27.12.2026 -
Robin Roefs Sunderland Aktiv 149 / 148 40% 3 22.12.2026 Beobachten
Fran Vieites Walsall Aktiv 121 / 124 40% 1 22.12.2026 -
Filip Marschall Stevenage Aktiv 110 / 102 40% 1 21.12.2026 -
Grégoire Coudert Burnley Aktiv 124 / 122 40% 2 18.12.2026 -
Zach Hemming Chesterfield Aktiv 108 / 109 40% 3 18.12.2026 -
Nicolás Sumavil Platense Aktiv 113 / 138 40% 1 14.12.2026 -
Juan Diego Castillo Vitoria Guimaraes Aktiv 111 / 111 40% 2 13.12.2026 -
Justin Hammel Grasshopper Aktiv 129 / 126 40% 1 13.12.2026 -
Francisco Meixedo Feirense Aktiv 120 / 117 40% 4 12.12.2026 -
Myles Roberts Cambridge United Aktiv 100 / 113 40% 1 11.12.2026 -
Jordan Amissah Burton Albion Aktiv 101 / 103 40% 2 09.12.2026 -
Lukas Jensen Millwall Aktiv 118 / 103 40% 1 09.12.2026 -
George Wickens Lincoln City Aktiv 119 / 103 40% 2 08.12.2026 -
Radek Vítek Middlesbrough Aktiv 128 / 145 40% 2 08.12.2026 Mehr Infos nötig
Anthony Patterson Wrexham Aktiv 129 / 132 40% 3 08.12.2026 -
Matevž Vidovšek Olimpija Ljubljana Aktiv 123 / 136 40% 1 01.12.2026 -
Lukas Gütlbauer Wolfsberger AC Aktiv 114 / 125 40% 1 26.11.2026 -
Raúl Rangel Braga Aktiv 129 / 122 40% 1 25.11.2026 -
Roman Celentano FC Cincinnati Aktiv 123 / 137 40% 1 24.11.2026 -
Josh Keeley Luton Town Aktiv 125 / 116 40% 1 16.11.2026 -
Kévin Denkey FC Cincinnati Aktiv 136 / 118 40% 2 15.11.2026 -
Nicolò Tresoldi Club Brugge Aktiv 131 / 129 40% 1 15.11.2026 -
Rodrigo Muniz Fulham Aktiv 145 / 130 40% 1 15.11.2026 -
Caleb Yirenkyi Coventry City Aktiv 134 / 140 40% 1 12.11.2026 -
Wilson Odobert Brighton Aktiv 145 / 132 40% 1 12.11.2026 -
Alfonso Trezza Arouca Aktiv 121 / 126 40% 1 12.11.2026 -
Zé Leite Moreirense Aktiv 118 / 127 40% 1 12.11.2026 -
Josh Coburn Millwall Aktiv 118 / 119 40% 1 07.11.2026 -
Rafael Navarro Famalicao Aktiv 122 / 128 40% 1 05.11.2026 -
Talles Magno New York City Aktiv 130 / 127 40% 1 05.11.2026 -
Giorgi Mamardashvili Liverpool Aktiv 160 / 168 40% 1 03.11.2026 -
Noni Madueke Arsenal Aktiv 160 / 158 40% 1 09.10.2026 -
Carlos Vicente Birmingham Aktiv 148 / 143 40% 1 08.10.2026 -
Facundo Mura Inter Miami CF Aktiv 123 / 119 40% 1 08.10.2026 -